AirNav   Pilot Hours Calculator
 
 943 users online  

3PS0 Penn Chester County Hospital Heliport
West Chester, Pennsylvania, USA

GOING TO WEST CHESTER?


FAA INFORMATION EFFECTIVE 20 MAY 2021

Location

FAA Identifier: 3PS0
Lat/Long: 39-58-20.5600N 075-36-06.3500W
39-58.342667N 075-36.105833W
39.9723778,-75.6017639
(estimated)
Elevation: 544 ft. / 166 m (estimated)
Variation: 11W (1985)
Time zone: UTC -4 (UTC -5 during Standard Time)
Zip code: 19380

Heliport Operations

Heliport use: Private use, MEDICAL USE.
Activation date: 02/1987
Control tower: no
ARTCC: NEW YORK CENTER
FSS: WILLIAMSPORT FLIGHT SERVICE STATION
Attendance: CONTINUOUS
Wind indicator: lighted
Segmented circle: no

Heliport Communications

WX AWOS-3T at OQN (1.4 nm NE): 121.4 ((610) 692-6190)
WX AWOS-3 at MQS (12 nm W): 126.25 (610-384-6132)
WX ASOS at PTW (16 nm N): 119.425 (610-495-0823)
WX ASOS at ILG (18 nm S): 123.95 (302-328-1536)
WX ASOS at PHL (18 nm E): PHONE 215-492-9617
WX AWOS-3 at LOM (18 nm NE): 118.925 (215-646-1068)

Nearby radio navigation aids

VOR radial/distance  VOR name  Freq  Var
MXEr053/4.6MODENA VORTAC113.2009W
PTWr196/15.1POTTSTOWN VORTAC116.5009W
DQOr011/17.7DUPONT VORTAC114.0010W
OODr336/24.4WOODSTOWN VORTAC112.8010W
LRPr115/32.9LANCASTER VOR/DME117.3009W
ARDr252/36.0YARDLEY VOR/DME108.2010W
ETXr183/36.7EAST TEXAS VOR/DME110.2009W
VCNr322/39.2CEDAR LAKE VOR/DME115.2010W

 
NDB name  Hdg/Dist  Freq  Var  ID
AMBLER250/17.227512WING .. -. --.
RAINBOW338/39.636311WRNB .-. -. -...

Heliport Services

Runway Information

Helipad H1

Dimensions: 55 x 55 ft. / 17 x 17 m
Surface: concrete/treated
Operational restrictions: 090 DEGREES INGRESS, 270 DEGREES EGRESS.
Latitude: 39-58.342667N
Longitude: 075-36.105833W
Elevation: 544.0 ft.
Traffic pattern: leftleft
Runway end identifier lights: yes

Heliport Ownership and Management from official FAA records

Ownership: Privately-owned
Owner: CHESTER COUNTY HOSPITAL
701 EAST MARSHALL STREET
WEST CHESTER, PA 19380
Phone (610) 431-5000
Manager: JOHN FELICETTI
701 EAST MARSHALL STREET
WEST CHESTER, PA 19380
Phone (610) 431-5558

Heliport Operational Statistics

Aircraft based on the field: 1
Helicopters: 1
    

Additional Remarks

FOR CD CTC PHILADELPHIA APCH AT 800-354-9884.

Instrument Procedures

There are no published instrument procedures at 3PS0.

Some nearby airports with instrument procedures:

KOQN - Brandywine Regional Airport (1 nm NE)
N57 - New Garden Airport (12 nm SW)
KMQS - Chester County G O Carlson Airport (12 nm W)
N10 - Perkiomen Valley Airport (16 nm NE)
KPTW - Heritage Field Airport (16 nm N)
7N7 - Spitfire Aerodrome (17 nm SE)
N47 - Pottstown Municipal Airport (18 nm N)
KILG - New Castle Airport (18 nm S)
KPHL - Philadelphia International Airport (18 nm E)
KLOM - Wings Field Airport (18 nm NE)
 
Loc | Ops | Rwys | IFR | FBO | Links
Com | Nav | Svcs | Stats | Notes
Area around 3PS0 (Penn Chester County Hospital Heliport)
 
Road maps at: MapQuest Bing Google
 
Aerial photo
No photo
 
Sectional chart

 
Airport distance calculator
Flying to Penn Chester County Hospital Heliport? Find the distance to fly.

From to 3PS0

Sunrise and sunset
Times for 15-Jun-2021
 Local
(UTC-4)
 Zulu
(UTC)
Morning civil twilight05:0109:01
Sunrise05:3409:34
Sunset20:3200:32
Evening civil twilight21:0401:04

Current date and time
Zulu (UTC)  16-Jun-2021 03:06:03
Local (UTC-4)  15-Jun-2021 23:06:03
 
METAR
KOQN 160215Z AUTO 36003KT 10SM CLR 21/12 A2983 RMK AO2
KMQS 
12nm W 
160215Z AUTO 31005KT 10SM CLR 19/14 A2985 RMK AO2
KPTW 
16nm N 
160154Z AUTO 03003KT 10SM FEW060 19/12 A2984 RMK AO2 SLP100 T01890117
KPHL 
18nm E 
160154Z 36008KT 10SM FEW110 FEW200 22/12 A2981 RMK AO2 SLP093 T02170122 $
KILG 
18nm S 
160151Z 32005KT 10SM CLR 20/14 A2981 RMK AO2 SLP095 T02000139 $
KLOM 
18nm NE 
160215Z AUTO 36004KT 10SM SCT055 OVC065 20/13 A2983 RMK AO2 T02010128
TAF
KPHL 
18nm E 
152058Z 1521/1624 31013KT P6SM SCT040 FM160300 31005KT P6SM SKC FM161400 31010KT P6SM FEW050
KILG 
18nm S 
151720Z 1518/1618 31010KT P6SM SCT040 FM152300 31005KT P6SM FEW050 FM161400 33008KT P6SM FEW050
NOTAMs
Click for the latest NOTAMs
NOTAMs are issued by the DoD/FAA and will open in a separate window not controlled by AirNav.

 

 
 

Would you like to see your business listed on this page?

 If your business provides an interesting product or service to pilots, flight crews, aircraft, or users of the Penn Chester County Hospital Heliport, you should consider listing it here.  To start the listing process, click on the button below
 
Add a business
 

Other Pages about Penn Chester County Hospital Heliport

Update a link
 
Copyright © AirNav, LLC. All rights reserved. Privacy Policy  Contact